Terminal Aerodrome Forecast
Issued by NWS

Home | Current Version | Previous Version | Text Only | Print | Product List | Glossary On
Versions: 1 2 3 4 5 6 7 8 9 10 11 12
000
FTUS45 KTFX 311100
TAFGTF
TAF
KGTF 311136Z 3112/0112 34015G25KT P6SM BKN008 OVC080
     FM311400 35015G28KT 4SM BR SCT003 OVC007
      TEMPO 3115/3119 3/4SM -SN BLSN VV003
     FM010200 36009KT P6SM SCT015 BKN035=

USA.gov is the U.S. government's official web portal to all federal, state and local government web resources and services.